| time (UTC) | temp C | wind direction | speed KPH | gust KPH | rain 1hr cm | rain 24hr cm | rain mn cm | humidity % | barometer mb |
| 20260509185716 | 24 | 266 | 0.0 | 1.6 | 0.00 | 0.13 | 0.13 | 57 | 1011.0 |
| 20260509185212 | 24 | 304 | 3.2 | 6.4 | 0.00 | 0.13 | 0.13 | 59 | 1011.0 |
| 20260509184709 | 24 | 298 | 0.0 | 0.0 | 0.00 | 0.13 | 0.13 | 56 | 1011.0 |
| 20260509184207 | 25 | 314 | 3.2 | 4.8 | 0.00 | 0.13 | 0.13 | 56 | 1011.0 |
| 20260509183703 | 23 | 307 | 0.0 | 0.0 | 0.00 | 0.13 | 0.13 | 58 | 1010.7 |
| 20260509183158 | 23 | 314 | 6.4 | 8.0 | 0.00 | 0.13 | 0.13 | 60 | 1010.7 |
| 20260509182654 | 23 | 318 | 8.0 | 8.0 | 0.00 | 0.13 | 0.13 | 56 | 1011.0 |
| 20260509182151 | 22 | 322 | 6.4 | 8.0 | 0.00 | 0.13 | 0.13 | 59 | 1011.0 |
| 20260509181649 | 23 | 308 | 4.8 | 6.4 | 0.00 | 0.13 | 0.13 | 60 | 1011.3 |
| 20260509181147 | 23 | 321 | 0.0 | 0.0 | 0.00 | 0.13 | 0.13 | 59 | 1011.0 |
| 20260509180643 | 22 | 255 | 1.6 | 6.4 | 0.00 | 0.13 | 0.13 | 64 | 1011.3 |
| 20260509180139 | 23 | 343 | 4.8 | 8.0 | 0.00 | 0.13 | 0.13 | 61 | 1011.3 |
| 20260509175635 | 23 | 297 | 0.0 | 1.6 | 0.00 | 0.13 | 0.13 | 62 | 1011.3 |
| 20260509175132 | 23 | 303 | 0.0 | 0.0 | 0.00 | 0.13 | 0.13 | 63 | 1011.0 |
| 20260509174628 | 22 | 267 | 3.2 | 4.8 | 0.00 | 0.13 | 0.13 | 62 | 1011.3 |
| 20260509174123 | 22 | 305 | 4.8 | 6.4 | 0.00 | 0.13 | 0.13 | 64 | 1011.0 |
| 20260509173619 | 22 | 221 | 8.0 | 12.9 | 0.00 | 0.13 | 0.13 | 63 | 1011.0 |
| 20260509173115 | 22 | 308 | 0.0 | 0.0 | 0.00 | 0.13 | 0.13 | 66 | 1011.0 |
| 20260509172612 | 22 | 300 | 0.0 | 0.0 | 0.00 | 0.13 | 0.13 | 64 | 1011.3 |
| 20260509172108 | 22 | 293 | 4.8 | 4.8 | 0.00 | 0.13 | 0.13 | 66 | 1011.3 |
| 20260509171604 | 22 | 288 | 3.2 | 4.8 | 0.00 | 0.13 | 0.13 | 65 | 1011.3 |
| 20260509171100 | 22 | 234 | 3.2 | 4.8 | 0.00 | 0.13 | 0.13 | 63 | 1011.3 |
| 20260509170556 | 22 | 25 | 1.6 | 1.6 | 0.00 | 0.13 | 0.13 | 63 | 1011.3 |
| 20260509170047 | 22 | 342 | 0.0 | 0.0 | 0.00 | 0.13 | 0.13 | 66 | 1011.3 |
| 20260509165545 | 21 | 286 | 1.6 | 4.8 | 0.00 | 0.13 | 0.13 | 70 | 1011.3 |
| 20260509165041 | 21 | 268 | 1.6 | 1.6 | 0.00 | 0.13 | 0.13 | 67 | 1011.3 |
| 20260509164537 | 21 | 317 | 4.8 | 11.3 | 0.00 | 0.13 | 0.13 | 69 | 1011.3 |
| 20260509164033 | 21 | 273 | 3.2 | 4.8 | 0.00 | 0.13 | 0.13 | 70 | 1011.3 |
| 20260509163531 | 21 | 286 | 1.6 | 1.6 | 0.00 | 0.13 | 0.13 | 69 | 1011.3 |
| 20260509163026 | 21 | 336 | 1.6 | 4.8 | 0.00 | 0.13 | 0.13 | 72 | 1011.3 |
| 20260509162524 | 21 | 309 | 1.6 | 1.6 | 0.00 | 0.13 | 0.13 | 70 | 1011.3 |
| 20260509162019 | 21 | 229 | 4.8 | 4.8 | 0.00 | 0.13 | 0.13 | 68 | 1011.3 |
| 20260509161516 | 21 | 303 | 0.0 | 0.0 | 0.00 | 0.13 | 0.13 | 67 | 1011.3 |
| 20260509161011 | 21 | 313 | 0.0 | 1.6 | 0.00 | 0.13 | 0.13 | 70 | 1011.3 |
| 20260509160507 | 21 | 353 | 3.2 | 4.8 | 0.00 | 0.13 | 0.13 | 71 | 1011.3 |
| 20260509160003 | 21 | 259 | 1.6 | 4.8 | 0.00 | 0.13 | 0.13 | 72 | 1011.3 |
| 20260509155459 | 20 | 216 | 4.8 | 6.4 | 0.00 | 0.13 | 0.13 | 71 | 1011.0 |
| 20260509154955 | 20 | 300 | 0.0 | 1.6 | 0.00 | 0.13 | 0.13 | 71 | 1011.3 |
| 20260509154451 | 20 | 268 | 3.2 | 4.8 | 0.00 | 0.13 | 0.13 | 70 | 1011.3 |
| 20260509153949 | 20 | 274 | 1.6 | 4.8 | 0.00 | 0.13 | 0.13 | 74 | 1011.3 |
| 20260509153446 | 20 | 323 | 4.8 | 6.4 | 0.00 | 0.13 | 0.13 | 74 | 1011.0 |
| 20260509152943 | 20 | 299 | 0.0 | 0.0 | 0.00 | 0.13 | 0.13 | 73 | 1011.3 |
| 20260509152438 | 20 | 293 | 0.0 | 1.6 | 0.00 | 0.13 | 0.13 | 74 | 1011.0 |
| 20260509151936 | 20 | 294 | 4.8 | 6.4 | 0.00 | 0.13 | 0.13 | 74 | 1011.3 |
| 20260509151432 | 20 | 324 | 1.6 | 1.6 | 0.00 | 0.13 | 0.13 | 74 | 1011.0 |
| 20260509150930 | 19 | 214 | 4.8 | 6.4 | 0.00 | 0.13 | 0.13 | 77 | 1011.0 |
| 20260509150427 | 19 | 274 | 0.0 | 1.6 | 0.00 | 0.13 | 0.13 | 77 | 1011.0 |
| 20260509145925 | 20 | 333 | 3.2 | 4.8 | 0.00 | 0.13 | 0.13 | 77 | 1011.0 |
| 20260509145425 | 20 | 283 | 1.6 | 1.6 | 0.00 | 0.13 | 0.13 | 74 | 1011.0 |
| 20260509144921 | 19 | 296 | 0.0 | 1.6 | 0.00 | 0.13 | 0.13 | 76 | 1011.0 |
| 20260509144418 | 18 | 296 | 0.0 | 0.0 | 0.00 | 0.13 | 0.13 | 80 | 1011.0 |
| 20260509143915 | 18 | 307 | 0.0 | 0.0 | 0.00 | 0.13 | 0.13 | 82 | 1010.7 |
| 20260509143412 | 18 | 280 | 4.8 | 6.4 | 0.00 | 0.13 | 0.13 | 81 | 1010.7 |
| 20260509142909 | 18 | 310 | 4.8 | 4.8 | 0.00 | 0.13 | 0.13 | 81 | 1010.7 |
| 20260509142405 | 18 | 277 | 4.8 | 4.8 | 0.00 | 0.13 | 0.13 | 81 | 1010.7 |
| 20260509141901 | 17 | 308 | 0.0 | 0.0 | 0.00 | 0.13 | 0.13 | 83 | 1010.7 |
| 20260509141358 | 17 | 215 | 3.2 | 4.8 | 0.00 | 0.13 | 0.13 | 82 | 1010.7 |
| 20260509140854 | 17 | 312 | 3.2 | 4.8 | 0.00 | 0.13 | 0.13 | 83 | 1010.7 |
| 20260509140351 | 17 | 247 | 1.6 | 1.6 | 0.00 | 0.13 | 0.13 | 84 | 1010.7 |
| 20260509135849 | 16 | 330 | 0.0 | 1.6 | 0.00 | 0.13 | 0.13 | 86 | 1010.7 |
| 20260509135347 | 17 | 307 | 1.6 | 1.6 | 0.00 | 0.13 | 0.13 | 85 | 1010.7 |
| 20260509134844 | 16 | 316 | 0.0 | 0.0 | 0.00 | 0.13 | 0.13 | 86 | 1010.7 |
| 20260509134341 | 16 | 300 | 1.6 | 1.6 | 0.00 | 0.13 | 0.13 | 86 | 1010.7 |
| 20260509133837 | 16 | 220 | 6.4 | 8.0 | 0.00 | 0.13 | 0.13 | 85 | 1010.7 |
| 20260509133335 | 16 | 318 | 0.0 | 1.6 | 0.00 | 0.13 | 0.13 | 86 | 1010.7 |
| 20260509132834 | 16 | 301 | 1.6 | 1.6 | 0.00 | 0.13 | 0.13 | 86 | 1010.7 |
| 20260509132331 | 16 | 287 | 0.0 | 1.6 | 0.00 | 0.13 | 0.13 | 87 | 1010.3 |
| 20260509131828 | 16 | 310 | 0.0 | 1.6 | 0.00 | 0.13 | 0.13 | 88 | 1010.7 |
| 20260509131325 | 16 | 293 | 1.6 | 1.6 | 0.00 | 0.13 | 0.13 | 88 | 1010.7 |
| 20260509130821 | 16 | 293 | 0.0 | 0.0 | 0.00 | 0.13 | 0.13 | 89 | 1010.7 |
| 20260509130317 | 15 | 284 | 1.6 | 1.6 | 0.00 | 0.13 | 0.13 | 90 | 1010.7 |
| 20260509125814 | 15 | 294 | 0.0 | 1.6 | 0.00 | 0.13 | 0.13 | 91 | 1010.7 |
| 20260509125310 | 15 | 282 | 1.6 | 1.6 | 0.00 | 0.13 | 0.13 | 93 | 1010.7 |
| 20260509124807 | 15 | 289 | 1.6 | 1.6 | 0.00 | 0.13 | 0.13 | 94 | 1010.7 |
| 20260509124303 | 14 | 264 | 1.6 | 1.6 | 0.00 | 0.13 | 0.13 | 95 | 1010.7 |
| 20260509123802 | 14 | 271 | 0.0 | 1.6 | 0.00 | 0.13 | 0.13 | 97 | 1010.3 |
| 20260509123259 | 14 | 283 | 0.0 | 0.0 | 0.00 | 0.13 | 0.13 | 97 | 1010.3 |
| 20260509122754 | 13 | 308 | 0.0 | 0.0 | 0.00 | 0.13 | 0.13 | 98 | 1010.3 |
| 20260509122251 | 13 | 310 | 0.0 | 0.0 | 0.00 | 0.13 | 0.13 | 98 | 1010.3 |
| 20260509121748 | 13 | 321 | 0.0 | 0.0 | 0.00 | 0.13 | 0.13 | 98 | 1010.0 |
| 20260509121245 | 13 | 325 | 0.0 | 0.0 | 0.00 | 0.13 | 0.13 | 98 | 1010.3 |
| 20260509120744 | 13 | 322 | 0.0 | 0.0 | 0.00 | 0.13 | 0.13 | 98 | 1009.7 |
| 20260509120241 | 13 | 322 | 0.0 | 0.0 | 0.00 | 0.13 | 0.13 | 98 | 1009.7 |
| 20260509115739 | 13 | 322 | 0.0 | 0.0 | 0.00 | 0.13 | 0.13 | 98 | 1009.7 |
| 20260509115235 | 13 | 322 | 0.0 | 0.0 | 0.00 | 0.13 | 0.13 | 98 | 1009.7 |
| 20260509114734 | 12 | 322 | 0.0 | 0.0 | 0.00 | 0.13 | 0.13 | 98 | 1009.7 |
| 20260509114232 | 12 | 321 | 0.0 | 0.0 | 0.00 | 0.13 | 0.13 | 97 | 1009.3 |
| 20260509113731 | 12 | 322 | 0.0 | 0.0 | 0.00 | 0.13 | 0.13 | 97 | 1009.7 |
| 20260509113227 | 12 | 322 | 0.0 | 0.0 | 0.00 | 0.13 | 0.13 | 97 | 1009.7 |
| 20260509112724 | 12 | 322 | 0.0 | 0.0 | 0.00 | 0.13 | 0.13 | 97 | 1009.7 |
| 20260509112221 | 12 | 322 | 0.0 | 0.0 | 0.00 | 0.13 | 0.13 | 97 | 1009.3 |
| 20260509111718 | 12 | 322 | 0.0 | 0.0 | 0.00 | 0.13 | 0.13 | 97 | 1009.3 |
| 20260509111215 | 12 | 322 | 0.0 | 0.0 | 0.00 | 0.13 | 0.13 | 97 | 1009.3 |
| 20260509110713 | 12 | 322 | 0.0 | 0.0 | 0.00 | 0.13 | 0.13 | 97 | 1009.0 |
| 20260509110209 | 12 | 322 | 0.0 | 0.0 | 0.00 | 0.13 | 0.13 | 96 | 1009.0 |
| 20260509105707 | 12 | 317 | 0.0 | 0.0 | 0.00 | 0.13 | 0.13 | 96 | 1009.0 |
| 20260509105204 | 12 | 317 | 0.0 | 0.0 | 0.00 | 0.13 | 0.13 | 96 | 1009.0 |
| 20260509104701 | 12 | 317 | 0.0 | 0.0 | 0.00 | 0.13 | 0.13 | 96 | 1008.6 |
| 20260509104158 | 12 | 308 | 0.0 | 0.0 | 0.00 | 0.13 | 0.13 | 96 | 1008.6 |
| 20260509103656 | 12 | 311 | 0.0 | 0.0 | 0.00 | 0.13 | 0.13 | 96 | 1008.6 |
| 20260509103153 | 13 | 312 | 0.0 | 0.0 | 0.00 | 0.13 | 0.13 | 96 | 1008.6 |
| 20260509102652 | 13 | 313 | 0.0 | 0.0 | 0.00 | 0.13 | 0.13 | 96 | 1008.6 |
| 20260509102148 | 13 | 313 | 0.0 | 0.0 | 0.00 | 0.13 | 0.13 | 96 | 1008.6 |
| 20260509101644 | 13 | 323 | 0.0 | 0.0 | 0.00 | 0.13 | 0.13 | 96 | 1008.6 |
| 20260509101141 | 13 | 323 | 0.0 | 0.0 | 0.00 | 0.13 | 0.13 | 95 | 1009.0 |
| 20260509100638 | 13 | 319 | 0.0 | 0.0 | 0.00 | 0.13 | 0.13 | 95 | 1008.6 |
| 20260509100135 | 13 | 323 | 0.0 | 0.0 | 0.00 | 0.13 | 0.13 | 95 | 1009.0 |
| 20260509095632 | 13 | 308 | 0.0 | 0.0 | 0.00 | 0.13 | 0.13 | 95 | 1008.6 |
| 20260509095130 | 13 | 288 | 0.0 | 0.0 | 0.00 | 0.13 | 0.13 | 95 | 1008.6 |
| 20260509094626 | 13 | 332 | 0.0 | 0.0 | 0.00 | 0.13 | 0.13 | 95 | 1008.6 |
| 20260509094123 | 13 | 343 | 0.0 | 0.0 | 0.00 | 0.13 | 0.13 | 95 | 1009.0 |
| 20260509093622 | 13 | 317 | 0.0 | 0.0 | 0.00 | 0.13 | 0.13 | 94 | 1009.0 |
| 20260509093118 | 13 | 317 | 0.0 | 0.0 | 0.00 | 0.13 | 0.13 | 94 | 1009.0 |
| 20260509092616 | 13 | 301 | 0.0 | 0.0 | 0.00 | 0.13 | 0.13 | 94 | 1009.0 |
| 20260509092114 | 13 | 320 | 0.0 | 0.0 | 0.00 | 0.13 | 0.13 | 94 | 1009.3 |
| 20260509091612 | 13 | 309 | 0.0 | 0.0 | 0.00 | 0.13 | 0.13 | 93 | 1009.3 |
| 20260509091108 | 13 | 315 | 0.0 | 0.0 | 0.00 | 0.13 | 0.13 | 93 | 1009.3 |
| 20260509090606 | 13 | 302 | 0.0 | 0.0 | 0.00 | 0.13 | 0.13 | 93 | 1009.3 |
| 20260509085600 | 13 | 318 | 0.0 | 0.0 | 0.13 | 0.13 | 0.13 | 92 | 1009.3 |
| 20260509085056 | 13 | 314 | 0.0 | 1.6 | 0.18 | 0.10 | 0.10 | 90 | 1009.3 |
| 20260509084553 | 14 | 303 | 0.0 | 0.0 | 0.18 | 0.10 | 0.10 | 90 | 1009.0 |
| 20260509084050 | 14 | 284 | 3.2 | 4.8 | 0.30 | 0.08 | 0.08 | 88 | 1009.3 |
| 20260509083548 | 14 | 312 | 1.6 | 4.8 | 0.43 | 0.08 | 0.08 | 87 | 1009.3 |
| 20260509083044 | 15 | 261 | 0.0 | 1.6 | 0.13 | 0.03 | 0.03 | 83 | 1009.3 |
| 20260509082542 | 15 | 315 | 0.0 | 0.0 | 0.00 | 0.00 | 0.00 | 80 | 1009.3 |
| 20260509082039 | 15 | 262 | 3.2 | 4.8 | 0.00 | 0.00 | 0.00 | 77 | 1009.3 |
| 20260509081536 | 15 | 311 | 0.0 | 0.0 | 0.00 | 0.00 | 0.00 | 78 | 1009.0 |
| 20260509081032 | 15 | 316 | 0.0 | 0.0 | 0.00 | 0.00 | 0.00 | 78 | 1009.3 |
| 20260509080531 | 15 | 320 | 0.0 | 0.0 | 0.00 | 0.00 | 0.00 | 76 | 1009.3 |
| 20260509080029 | 15 | 297 | 0.0 | 0.0 | 0.00 | 0.00 | 0.00 | 76 | 1009.7 |
| 20260509075525 | 15 | 290 | 0.0 | 1.6 | 0.00 | 0.00 | 0.00 | 76 | 1009.3 |
| 20260509075024 | 15 | 299 | 0.0 | 0.0 | 0.00 | 0.00 | 0.00 | 76 | 1009.3 |
| 20260509074520 | 15 | 287 | 0.0 | 1.6 | 0.00 | 0.00 | 0.00 | 76 | 1009.3 |
| 20260509074017 | 15 | 285 | 0.0 | 0.0 | 0.00 | 0.00 | 0.00 | 76 | 1009.3 |
| 20260509073513 | 15 | 305 | 0.0 | 0.0 | 0.00 | 0.00 | 0.00 | 75 | 1009.0 |
| 20260509073010 | 15 | 306 | 0.0 | 0.0 | 0.00 | 0.00 | 0.00 | 75 | 1009.7 |
| 20260509072507 | 15 | 294 | 0.0 | 0.0 | 0.00 | 0.00 | 0.00 | 74 | 1009.3 |
| 20260509072003 | 16 | 291 | 0.0 | 0.0 | 0.00 | 0.00 | 0.00 | 74 | 1009.3 |
| 20260509071500 | 16 | 303 | 0.0 | 0.0 | 0.00 | 0.00 | 0.00 | 73 | 1009.7 |
| 20260509070958 | 16 | 230 | 3.2 | 4.8 | 0.00 | 0.00 | 0.00 | 73 | 1009.7 |
| 20260509070454 | 15 | 291 | 0.0 | 0.0 | 0.00 | 0.00 | 0.00 | 73 | 1009.7 |
| 20260509065950 | 15 | 306 | 0.0 | 0.0 | 0.00 | 0.00 | 0.00 | 73 | 1009.3 |
| 20260509065446 | 16 | 290 | 0.0 | 0.0 | 0.00 | 0.00 | 0.00 | 73 | 1009.7 |
| 20260509064942 | 16 | 287 | 0.0 | 0.0 | 0.00 | 0.00 | 0.00 | 72 | 1009.3 |
| 20260509064440 | 16 | 291 | 4.8 | 6.4 | 0.00 | 0.00 | 0.00 | 71 | 1009.7 |
| 20260509063938 | 16 | 288 | 1.6 | 1.6 | 0.00 | 0.00 | 0.00 | 71 | 1009.3 |
| 20260509063433 | 16 | 282 | 1.6 | 1.6 | 0.00 | 0.00 | 0.00 | 71 | 1009.3 |
| 20260509062930 | 16 | 302 | 0.0 | 0.0 | 0.00 | 0.00 | 0.00 | 70 | 1009.7 |
| 20260509062428 | 16 | 322 | 0.0 | 0.0 | 0.00 | 0.00 | 0.00 | 70 | 1009.7 |
| 20260509061925 | 16 | 305 | 0.0 | 0.0 | 0.00 | 0.00 | 0.00 | 70 | 1009.7 |
| 20260509061422 | 16 | 211 | 3.2 | 6.4 | 0.00 | 0.00 | 0.00 | 70 | 1009.7 |
| 20260509060919 | 16 | 223 | 3.2 | 6.4 | 0.00 | 0.00 | 0.00 | 69 | 1009.7 |
| 20260509060417 | 16 | 268 | 3.2 | 4.8 | 0.00 | 0.00 | 0.00 | 69 | 1009.7 |
| 20260509055911 | 16 | 264 | 1.6 | 1.6 | 0.00 | 0.00 | 0.00 | 69 | 1009.7 |
| 20260509055407 | 16 | 293 | 0.0 | 0.0 | 0.00 | 0.00 | 0.00 | 69 | 1009.7 |
| 20260509054904 | 16 | 290 | 0.0 | 0.0 | 0.00 | 0.00 | 0.00 | 69 | 1009.7 |
| 20260509054401 | 16 | 308 | 0.0 | 0.0 | 0.00 | 0.00 | 0.00 | 70 | 1009.7 |
| 20260509053859 | 15 | 306 | 0.0 | 0.0 | 0.00 | 0.00 | 0.00 | 70 | 1009.7 |
| 20260509053356 | 15 | 259 | 3.2 | 4.8 | 0.00 | 0.00 | 0.00 | 72 | 1009.7 |
| 20260509052855 | 15 | 334 | 0.0 | 0.0 | 0.00 | 0.00 | 0.00 | 74 | 1009.7 |
| 20260509052351 | 14 | 280 | 3.2 | 4.8 | 0.00 | 0.00 | 0.00 | 76 | 1010.0 |
| 20260509051849 | 14 | 338 | 0.0 | 0.0 | 0.00 | 0.00 | 0.00 | 77 | 1009.7 |
| 20260509051347 | 14 | 338 | 0.0 | 0.0 | 0.00 | 0.00 | 0.00 | 78 | 1010.0 |
| 20260509050843 | 14 | 339 | 0.0 | 0.0 | 0.00 | 0.00 | 0.00 | 78 | 1009.7 |
| 20260509050340 | 13 | 338 | 0.0 | 0.0 | 0.00 | 0.00 | 0.00 | 79 | 1010.0 |
| 20260509045837 | 13 | 338 | 0.0 | 0.0 | 0.00 | 0.00 | 0.00 | 79 | 1009.7 |
| 20260509045334 | 13 | 337 | 0.0 | 0.0 | 0.00 | 0.00 | 0.00 | 79 | 1010.0 |
| 20260509044831 | 13 | 340 | 0.0 | 0.0 | 0.00 | 0.00 | 0.00 | 79 | 1010.0 |
| 20260509044329 | 13 | 331 | 0.0 | 0.0 | 0.00 | 0.00 | 0.00 | 80 | 1010.0 |
| 20260509043825 | 13 | 331 | 0.0 | 0.0 | 0.00 | 0.00 | 0.00 | 79 | 1010.0 |
| 20260509043321 | 13 | 331 | 0.0 | 0.0 | 0.00 | 0.00 | 0.00 | 79 | 1009.7 |
| 20260509042817 | 13 | 331 | 0.0 | 0.0 | 0.00 | 0.00 | 0.00 | 79 | 1010.0 |
| 20260509042314 | 13 | 331 | 0.0 | 0.0 | 0.00 | 0.00 | 0.00 | 80 | 1009.7 |
| 20260509041810 | 13 | 331 | 0.0 | 0.0 | 0.00 | 0.00 | 0.00 | 79 | 1010.0 |
| 20260509041308 | 13 | 331 | 0.0 | 0.0 | 0.00 | 0.00 | 0.00 | 80 | 1010.0 |
| 20260509040806 | 13 | 331 | 0.0 | 0.0 | 0.00 | 0.00 | 0.00 | 80 | 1010.0 |
| 20260509040303 | 13 | 331 | 0.0 | 0.0 | 0.00 | 0.00 | 0.00 | 80 | 1010.0 |
| 20260509035800 | 13 | 331 | 0.0 | 0.0 | 0.00 | 0.00 | 0.00 | 80 | 1010.0 |
| 20260509035257 | 13 | 331 | 0.0 | 0.0 | 0.00 | 0.00 | 0.00 | 80 | 1010.0 |
| 20260509034753 | 13 | 331 | 0.0 | 0.0 | 0.00 | 0.00 | 0.00 | 80 | 1010.0 |
| 20260509034251 | 13 | 331 | 0.0 | 0.0 | 0.00 | 0.00 | 0.00 | 79 | 1010.0 |
| 20260509033748 | 13 | 331 | 0.0 | 0.0 | 0.00 | 0.00 | 0.00 | 79 | 1010.0 |
| 20260509033245 | 13 | 331 | 0.0 | 0.0 | 0.00 | 0.00 | 0.00 | 78 | 1010.3 |
| 20260509032742 | 13 | 331 | 0.0 | 0.0 | 0.00 | 0.00 | 0.00 | 78 | 1010.3 |
| 20260509032239 | 13 | 331 | 0.0 | 0.0 | 0.00 | 0.00 | 0.00 | 78 | 1010.7 |
| 20260509031736 | 13 | 331 | 0.0 | 0.0 | 0.00 | 0.00 | 0.00 | 78 | 1010.7 |
| 20260509031234 | 13 | 331 | 0.0 | 0.0 | 0.00 | 0.00 | 0.00 | 77 | 1010.3 |
| 20260509030732 | 14 | 331 | 0.0 | 0.0 | 0.00 | 0.00 | 0.00 | 76 | 1010.3 |
| 20260509030229 | 14 | 331 | 0.0 | 0.0 | 0.00 | 0.00 | 0.00 | 75 | 1010.3 |
| 20260509025726 | 15 | 331 | 0.0 | 0.0 | 0.00 | 0.00 | 0.00 | 75 | 1010.3 |
| 20260509025221 | 15 | 331 | 0.0 | 0.0 | 0.00 | 0.00 | 0.00 | 74 | 1010.0 |
| 20260509024717 | 15 | 330 | 0.0 | 0.0 | 0.00 | 0.00 | 0.00 | 75 | 1010.0 |
| 20260509024212 | 15 | 329 | 0.0 | 0.0 | 0.00 | 0.00 | 0.00 | 73 | 1010.3 |
| 20260509023710 | 15 | 329 | 0.0 | 0.0 | 0.00 | 0.00 | 0.00 | 72 | 1010.3 |
| 20260509023207 | 15 | 296 | 0.0 | 0.0 | 0.00 | 0.00 | 0.00 | 71 | 1010.3 |
| 20260509022703 | 15 | 290 | 0.0 | 1.6 | 0.00 | 0.00 | 0.00 | 71 | 1010.0 |
| 20260509022201 | 16 | 290 | 0.0 | 0.0 | 0.00 | 0.00 | 0.00 | 70 | 1010.0 |
| 20260509021658 | 16 | 290 | 0.0 | 0.0 | 0.00 | 0.00 | 0.00 | 69 | 1010.0 |
| 20260509021155 | 16 | 290 | 0.0 | 0.0 | 0.00 | 0.00 | 0.00 | 67 | 1010.0 |
| 20260509020653 | 16 | 290 | 0.0 | 0.0 | 0.00 | 0.00 | 0.00 | 68 | 1010.0 |
| 20260509020150 | 16 | 290 | 0.0 | 0.0 | 0.00 | 0.00 | 0.00 | 67 | 1010.3 |
| 20260509015649 | 16 | 290 | 0.0 | 0.0 | 0.00 | 0.00 | 0.00 | 67 | 1010.3 |
| 20260509015146 | 16 | 290 | 0.0 | 0.0 | 0.00 | 0.00 | 0.00 | 67 | 1010.3 |
| 20260509014642 | 17 | 290 | 0.0 | 0.0 | 0.00 | 0.00 | 0.00 | 65 | 1010.3 |
| 20260509014139 | 17 | 290 | 0.0 | 0.0 | 0.00 | 0.00 | 0.00 | 65 | 1010.3 |
| 20260509013636 | 17 | 290 | 0.0 | 0.0 | 0.00 | 0.00 | 0.00 | 65 | 1010.3 |
| 20260509013131 | 16 | 290 | 0.0 | 0.0 | 0.00 | 0.00 | 0.00 | 65 | 1010.3 |
| 20260509012628 | 16 | 290 | 0.0 | 0.0 | 0.00 | 0.00 | 0.00 | 66 | 1010.3 |
| 20260509012125 | 16 | 290 | 0.0 | 0.0 | 0.00 | 0.00 | 0.00 | 64 | 1010.0 |
| 20260509011623 | 16 | 290 | 0.0 | 0.0 | 0.00 | 0.00 | 0.00 | 62 | 1010.3 |
| 20260509011120 | 17 | 290 | 0.0 | 0.0 | 0.00 | 0.00 | 0.00 | 63 | 1010.3 |
| 20260509010618 | 17 | 290 | 0.0 | 0.0 | 0.00 | 0.00 | 0.00 | 63 | 1010.3 |
| 20260509010114 | 17 | 290 | 0.0 | 0.0 | 0.00 | 0.00 | 0.00 | 62 | 1010.3 |
| 20260509005612 | 17 | 290 | 0.0 | 0.0 | 0.00 | 0.00 | 0.00 | 61 | 1010.3 |
| 20260509005108 | 18 | 290 | 0.0 | 0.0 | 0.00 | 0.00 | 0.00 | 61 | 1010.3 |
| 20260509004604 | 18 | 290 | 0.0 | 0.0 | 0.00 | 0.00 | 0.00 | 56 | 1010.3 |
| 20260509004101 | 18 | 290 | 0.0 | 0.0 | 0.00 | 0.00 | 0.00 | 56 | 1010.3 |
| 20260509003559 | 19 | 290 | 0.0 | 0.0 | 0.00 | 0.00 | 0.00 | 55 | 1010.7 |
| 20260509003056 | 20 | 290 | 0.0 | 0.0 | 0.00 | 0.00 | 0.00 | 53 | 1010.3 |
| 20260509002554 | 20 | 290 | 0.0 | 0.0 | 0.00 | 0.00 | 0.00 | 51 | 1010.7 |
| 20260509002051 | 21 | 290 | 0.0 | 0.0 | 0.00 | 0.00 | 0.00 | 49 | 1010.7 |
| 20260509001548 | 21 | 290 | 0.0 | 0.0 | 0.00 | 0.00 | 0.00 | 47 | 1010.7 |
| 20260509001044 | 21 | 289 | 0.0 | 0.0 | 0.00 | 0.00 | 0.00 | 46 | 1010.7 |
| 20260509000543 | 21 | 292 | 0.0 | 1.6 | 0.00 | 0.00 | 0.00 | 46 | 1010.7 |
| 20260509000038 | 21 | 292 | 0.0 | 0.0 | 0.00 | 0.00 | 0.00 | 45 | 1010.7 |
| 20260508235537 | 22 | 218 | 1.6 | 6.4 | 0.00 | 0.00 | 0.00 | 44 | 1010.7 |
| 20260508235032 | 21 | 298 | 0.0 | 0.0 | 0.00 | 0.00 | 0.00 | 45 | 1010.3 |
| 20260508234530 | 22 | 287 | 0.0 | 0.0 | 0.00 | 0.00 | 0.00 | 44 | 1010.7 |
| 20260508234027 | 22 | 279 | 1.6 | 4.8 | 0.00 | 0.00 | 0.00 | 44 | 1010.7 |
| 20260508233526 | 21 | 293 | 0.0 | 0.0 | 0.00 | 0.00 | 0.00 | 44 | 1010.7 |
| 20260508233023 | 21 | 294 | 0.0 | 0.0 | 0.00 | 0.00 | 0.00 | 43 | 1010.7 |
| 20260508232520 | 22 | 220 | 4.8 | 6.4 | 0.00 | 0.00 | 0.00 | 42 | 1010.3 |
| 20260508232017 | 22 | 259 | 1.6 | 1.6 | 0.00 | 0.00 | 0.00 | 43 | 1010.7 |
| 20260508231514 | 22 | 272 | 1.6 | 1.6 | 0.00 | 0.00 | 0.00 | 41 | 1010.7 |
| 20260508231011 | 22 | 215 | 6.4 | 8.0 | 0.00 | 0.00 | 0.00 | 41 | 1010.7 |
| 20260508230508 | 23 | 232 | 9.7 | 11.3 | 0.00 | 0.00 | 0.00 | 39 | 1011.0 |
| 20260508230005 | 23 | 332 | 0.0 | 0.0 | 0.00 | 0.00 | 0.00 | 41 | 1010.7 |
| 20260508225502 | 23 | 264 | 1.6 | 1.6 | 0.00 | 0.00 | 0.00 | 40 | 1010.7 |
| 20260508224959 | 23 | 285 | 1.6 | 1.6 | 0.00 | 0.00 | 0.00 | 40 | 1011.0 |
| 20260508224456 | 23 | 236 | 9.7 | 11.3 | 0.00 | 0.00 | 0.00 | 38 | 1011.0 |
| 20260508223953 | 23 | 302 | 1.6 | 1.6 | 0.00 | 0.00 | 0.00 | 41 | 1011.0 |
| 20260508223451 | 23 | 18 | 0.0 | 1.6 | 0.00 | 0.00 | 0.00 | 41 | 1010.7 |
| 20260508222948 | 23 | 275 | 3.2 | 4.8 | 0.00 | 0.00 | 0.00 | 39 | 1011.0 |
| 20260508222446 | 23 | 70 | 3.2 | 4.8 | 0.00 | 0.00 | 0.00 | 41 | 1011.3 |
| 20260508221942 | 23 | 267 | 3.2 | 4.8 | 0.00 | 0.00 | 0.00 | 40 | 1011.0 |
| 20260508221438 | 23 | 237 | 6.4 | 8.0 | 0.00 | 0.00 | 0.00 | 39 | 1011.3 |
| 20260508220934 | 23 | 225 | 4.8 | 4.8 | 0.00 | 0.00 | 0.00 | 39 | 1011.3 |
| 20260508220431 | 23 | 260 | 6.4 | 8.0 | 0.00 | 0.00 | 0.00 | 40 | 1011.0 |
| 20260508215927 | 23 | 245 | 1.6 | 1.6 | 0.00 | 0.00 | 0.00 | 40 | 1011.0 |
| 20260508215425 | 23 | 260 | 3.2 | 6.4 | 0.00 | 0.00 | 0.00 | 39 | 1011.0 |
| 20260508214921 | 23 | 246 | 6.4 | 8.0 | 0.00 | 0.00 | 0.00 | 39 | 1011.0 |
| 20260508214419 | 23 | 279 | 3.2 | 4.8 | 0.00 | 0.00 | 0.00 | 40 | 1011.0 |
| 20260508213914 | 23 | 258 | 3.2 | 4.8 | 0.00 | 0.00 | 0.00 | 40 | 1011.0 |
| 20260508213412 | 23 | 269 | 1.6 | 1.6 | 0.00 | 0.00 | 0.00 | 42 | 1011.0 |
| 20260508212908 | 23 | 264 | 4.8 | 4.8 | 0.00 | 0.00 | 0.00 | 40 | 1010.7 |
| 20260508212404 | 23 | 267 | 1.6 | 4.8 | 0.00 | 0.00 | 0.00 | 39 | 1011.0 |
| 20260508211901 | 23 | 189 | 6.4 | 8.0 | 0.00 | 0.00 | 0.00 | 39 | 1011.0 |
| 20260508211356 | 23 | 266 | 4.8 | 8.0 | 0.00 | 0.00 | 0.00 | 39 | 1011.3 |
| 20260508210854 | 24 | 283 | 0.0 | 1.6 | 0.00 | 0.00 | 0.00 | 38 | 1011.3 |
| 20260508210350 | 25 | 304 | 0.0 | 0.0 | 0.00 | 0.00 | 0.00 | 41 | 1011.0 |
| 20260508205847 | 23 | 301 | 0.0 | 0.0 | 0.00 | 0.00 | 0.00 | 41 | 1011.3 |
| 20260508205343 | 24 | 250 | 3.2 | 4.8 | 0.00 | 0.00 | 0.00 | 39 | 1011.3 |
| 20260508204839 | 23 | 249 | 4.8 | 6.4 | 0.00 | 0.00 | 0.00 | 39 | 1011.3 |
| 20260508204337 | 23 | 255 | 3.2 | 6.4 | 0.00 | 0.00 | 0.00 | 39 | 1011.7 |
| 20260508203832 | 23 | 207 | 3.2 | 6.4 | 0.00 | 0.00 | 0.00 | 41 | 1011.7 |
| 20260508203329 | 23 | 220 | 3.2 | 4.8 | 0.00 | 0.00 | 0.00 | 41 | 1011.3 |
| 20260508202824 | 23 | 249 | 4.8 | 6.4 | 0.00 | 0.00 | 0.00 | 37 | 1011.7 |
| 20260508202322 | 23 | 243 | 6.4 | 8.0 | 0.00 | 0.00 | 0.00 | 38 | 1011.7 |
| 20260508201820 | 23 | 19 | 4.8 | 11.3 | 0.00 | 0.00 | 0.00 | 41 | 1011.7 |
| 20260508201317 | 23 | 301 | 0.0 | 0.0 | 0.00 | 0.00 | 0.00 | 42 | 1012.0 |
| 20260508200813 | 23 | 359 | 0.0 | 0.0 | 0.00 | 0.00 | 0.00 | 40 | 1012.0 |
| 20260508200309 | 23 | 291 | 1.6 | 4.8 | 0.00 | 0.00 | 0.00 | 41 | 1012.0 |
| 20260508195805 | 23 | 202 | 6.4 | 8.0 | 0.00 | 0.00 | 0.00 | 42 | 1012.4 |
| 20260508195305 | 23 | 202 | 4.8 | 6.4 | 0.00 | 0.00 | 0.00 | 41 | 1012.4 |
| 20260508194758 | 23 | 323 | 0.0 | 1.6 | 0.00 | 0.00 | 0.00 | 45 | 1012.4 |
| 20260508194255 | 23 | 313 | 0.0 | 0.0 | 0.00 | 0.00 | 0.00 | 39 | 1012.4 |
| 20260508193753 | 23 | 273 | 1.6 | 1.6 | 0.00 | 0.00 | 0.00 | 43 | 1012.7 |
| 20260508193249 | 23 | 330 | 0.0 | 0.0 | 0.00 | 0.00 | 0.00 | 40 | 1012.7 |
| 20260508192745 | 23 | 306 | 0.0 | 0.0 | 0.00 | 0.00 | 0.00 | 41 | 1013.0 |
| 20260508192243 | 23 | 214 | 6.4 | 11.3 | 0.00 | 0.00 | 0.00 | 40 | 1013.0 |
| 20260508191740 | 22 | 214 | 4.8 | 6.4 | 0.00 | 0.00 | 0.00 | 43 | 1013.0 |
| 20260508191237 | 23 | 255 | 4.8 | 6.4 | 0.00 | 0.00 | 0.00 | 44 | 1013.5 |
| 20260508190734 | 22 | 330 | 0.0 | 0.0 | 0.00 | 0.00 | 0.00 | 42 | 1013.5 |
| 20260508190230 | 22 | 249 | 4.8 | 11.3 | 0.00 | 0.00 | 0.00 | 40 | 1013.8 |